sensor_id;sensor_type;location;lat;lon;timestamp;P1;durP1;ratioP1;P2;durP2;ratioP2
4857;SDS011;58975;51.978;8.472;2023-10-13T00:01:23;27.35;;;17.63;;
4857;SDS011;58975;51.978;8.472;2023-10-13T00:06:20;30.30;;;16.43;;
4857;SDS011;58975;51.978;8.472;2023-10-13T00:11:16;29.25;;;17.00;;
4857;SDS011;58975;51.978;8.472;2023-10-13T00:16:14;23.55;;;14.45;;
4857;SDS011;58975;51.978;8.472;2023-10-13T00:21:14;23.55;;;15.30;;
4857;SDS011;58975;51.978;8.472;2023-10-13T00:26:28;28.45;;;15.98;;
4857;SDS011;58975;51.978;8.472;2023-10-13T00:31:26;21.67;;;14.50;;
4857;SDS011;58975;51.978;8.472;2023-10-13T00:36:29;23.75;;;14.27;;
4857;SDS011;58975;51.978;8.472;2023-10-13T00:41:28;25.38;;;15.15;;
4857;SDS011;58975;51.978;8.472;2023-10-13T00:46:43;27.88;;;15.82;;
4857;SDS011;58975;51.978;8.472;2023-10-13T00:51:42;29.13;;;14.85;;
4857;SDS011;58975;51.978;8.472;2023-10-13T00:56:43;25.25;;;14.75;;
4857;SDS011;58975;51.978;8.472;2023-10-13T01:01:45;21.38;;;14.77;;
4857;SDS011;58975;51.978;8.472;2023-10-13T01:06:42;30.73;;;14.40;;
4857;SDS011;58975;51.978;8.472;2023-10-13T01:11:39;21.38;;;13.77;;
4857;SDS011;58975;51.978;8.472;2023-10-13T01:16:39;25.92;;;15.63;;
4857;SDS011;58975;51.978;8.472;2023-10-13T01:21:42;22.67;;;13.88;;
4857;SDS011;58975;51.978;8.472;2023-10-13T01:26:40;26.98;;;14.23;;
4857;SDS011;58975;51.978;8.472;2023-10-13T01:31:42;30.70;;;16.05;;
4857;SDS011;58975;51.978;8.472;2023-10-13T01:36:43;28.20;;;15.63;;
4857;SDS011;58975;51.978;8.472;2023-10-13T01:41:40;24.37;;;15.67;;
4857;SDS011;58975;51.978;8.472;2023-10-13T01:46:38;23.00;;;15.27;;
4857;SDS011;58975;51.978;8.472;2023-10-13T01:51:35;23.88;;;14.07;;
4857;SDS011;58975;51.978;8.472;2023-10-13T01:56:31;24.30;;;15.15;;
4857;SDS011;58975;51.978;8.472;2023-10-13T02:01:33;21.83;;;14.27;;
4857;SDS011;58975;51.978;8.472;2023-10-13T02:06:31;28.15;;;15.25;;
4857;SDS011;58975;51.978;8.472;2023-10-13T02:11:32;25.52;;;15.13;;
4857;SDS011;58975;51.978;8.472;2023-10-13T02:16:28;32.00;;;16.05;;
4857;SDS011;58975;51.978;8.472;2023-10-13T02:21:27;23.73;;;14.40;;
4857;SDS011;58975;51.978;8.472;2023-10-13T02:26:29;26.10;;;15.02;;
4857;SDS011;58975;51.978;8.472;2023-10-13T02:31:35;22.43;;;14.03;;
4857;SDS011;58975;51.978;8.472;2023-10-13T02:36:32;25.77;;;14.05;;
4857;SDS011;58975;51.978;8.472;2023-10-13T02:41:40;25.85;;;14.57;;
4857;SDS011;58975;51.978;8.472;2023-10-13T02:46:37;22.48;;;14.35;;
4857;SDS011;58975;51.978;8.472;2023-10-13T02:51:37;24.50;;;14.68;;
4857;SDS011;58975;51.978;8.472;2023-10-13T02:56:33;18.55;;;14.05;;
4857;SDS011;58975;51.978;8.472;2023-10-13T03:01:31;23.00;;;13.93;;
4857;SDS011;58975;51.978;8.472;2023-10-13T03:06:30;22.73;;;13.13;;
4857;SDS011;58975;51.978;8.472;2023-10-13T03:11:29;25.20;;;14.55;;
4857;SDS011;58975;51.978;8.472;2023-10-13T03:16:29;25.40;;;14.32;;
4857;SDS011;58975;51.978;8.472;2023-10-13T03:21:28;25.10;;;14.55;;
4857;SDS011;58975;51.978;8.472;2023-10-13T03:26:25;25.02;;;14.98;;
4857;SDS011;58975;51.978;8.472;2023-10-13T03:31:22;29.48;;;15.52;;
4857;SDS011;58975;51.978;8.472;2023-10-13T03:36:25;28.77;;;16.67;;
4857;SDS011;58975;51.978;8.472;2023-10-13T03:41:41;25.80;;;14.45;;
4857;SDS011;58975;51.978;8.472;2023-10-13T03:46:37;19.75;;;13.68;;
4857;SDS011;58975;51.978;8.472;2023-10-13T03:51:38;21.75;;;14.20;;
4857;SDS011;58975;51.978;8.472;2023-10-13T03:56:35;22.35;;;15.05;;
4857;SDS011;58975;51.978;8.472;2023-10-13T04:01:36;21.65;;;14.63;;
4857;SDS011;58975;51.978;8.472;2023-10-13T04:06:42;26.58;;;14.48;;
4857;SDS011;58975;51.978;8.472;2023-10-13T04:11:44;25.60;;;14.45;;
4857;SDS011;58975;51.978;8.472;2023-10-13T04:17:01;23.60;;;13.77;;
4857;SDS011;58975;51.978;8.472;2023-10-13T04:22:08;21.92;;;14.55;;
4857;SDS011;58975;51.978;8.472;2023-10-13T04:27:17;19.98;;;13.73;;
4857;SDS011;58975;51.978;8.472;2023-10-13T04:32:35;20.27;;;13.30;;
4857;SDS011;58975;51.978;8.472;2023-10-13T04:37:37;19.95;;;13.45;;
4857;SDS011;58975;51.978;8.472;2023-10-13T04:42:47;23.15;;;14.65;;
4857;SDS011;58975;51.978;8.472;2023-10-13T04:47:46;21.33;;;12.70;;
4857;SDS011;58975;51.978;8.472;2023-10-13T04:52:53;22.95;;;13.60;;
4857;SDS011;58975;51.978;8.472;2023-10-13T04:57:58;18.23;;;11.40;;
4857;SDS011;58975;51.978;8.472;2023-10-13T05:03:11;19.45;;;11.00;;
4857;SDS011;58975;51.978;8.472;2023-10-13T05:08:33;15.32;;;10.35;;
4857;SDS011;58975;51.978;8.472;2023-10-13T05:13:48;16.80;;;10.00;;
4857;SDS011;58975;51.978;8.472;2023-10-13T05:19:03;15.15;;;9.20;;
4857;SDS011;58975;51.978;8.472;2023-10-13T05:24:19;11.93;;;8.45;;
4857;SDS011;58975;51.978;8.472;2023-10-13T05:29:34;18.42;;;8.90;;
4857;SDS011;58975;51.978;8.472;2023-10-13T05:34:53;12.02;;;8.68;;
4857;SDS011;58975;51.978;8.472;2023-10-13T05:40:08;16.92;;;9.48;;
4857;SDS011;58975;51.978;8.472;2023-10-13T05:45:23;15.13;;;9.13;;
4857;SDS011;58975;51.978;8.472;2023-10-13T05:50:33;17.58;;;9.18;;
4857;SDS011;58975;51.978;8.472;2023-10-13T05:56:07;15.80;;;8.75;;
4857;SDS011;58975;51.978;8.472;2023-10-13T06:01:22;17.33;;;9.05;;
4857;SDS011;58975;51.978;8.472;2023-10-13T06:06:50;14.02;;;8.18;;
4857;SDS011;58975;51.978;8.472;2023-10-13T06:12:06;13.80;;;7.88;;
4857;SDS011;58975;51.978;8.472;2023-10-13T06:17:22;19.17;;;8.20;;
4857;SDS011;58975;51.978;8.472;2023-10-13T06:22:37;15.45;;;8.13;;
4857;SDS011;58975;51.978;8.472;2023-10-13T06:27:52;13.45;;;7.93;;
4857;SDS011;58975;51.978;8.472;2023-10-13T06:33:07;15.32;;;8.30;;
4857;SDS011;58975;51.978;8.472;2023-10-13T06:38:04;13.50;;;8.25;;
4857;SDS011;58975;51.978;8.472;2023-10-13T06:43:06;14.13;;;8.23;;
4857;SDS011;58975;51.978;8.472;2023-10-13T06:48:17;13.68;;;7.72;;
4857;SDS011;58975;51.978;8.472;2023-10-13T06:53:16;14.82;;;7.60;;
4857;SDS011;58975;51.978;8.472;2023-10-13T06:58:13;12.10;;;7.53;;
4857;SDS011;58975;51.978;8.472;2023-10-13T07:03:10;13.68;;;7.90;;
4857;SDS011;58975;51.978;8.472;2023-10-13T07:08:14;13.13;;;7.70;;
4857;SDS011;58975;51.978;8.472;2023-10-13T07:13:13;14.15;;;7.53;;
4857;SDS011;58975;51.978;8.472;2023-10-13T07:18:11;13.73;;;7.90;;
4857;SDS011;58975;51.978;8.472;2023-10-13T07:23:12;15.38;;;8.13;;
4857;SDS011;58975;51.978;8.472;2023-10-13T07:28:13;11.60;;;6.20;;
4857;SDS011;58975;51.978;8.472;2023-10-13T07:33:11;8.98;;;6.28;;
4857;SDS011;58975;51.978;8.472;2023-10-13T07:38:10;10.73;;;6.03;;
4857;SDS011;58975;51.978;8.472;2023-10-13T07:43:06;14.63;;;5.68;;
4857;SDS011;58975;51.978;8.472;2023-10-13T07:48:07;12.32;;;5.68;;
4857;SDS011;58975;51.978;8.472;2023-10-13T07:53:13;12.25;;;5.55;;
4857;SDS011;58975;51.978;8.472;2023-10-13T07:58:19;11.05;;;5.82;;
4857;SDS011;58975;51.978;8.472;2023-10-13T08:03:15;13.35;;;5.53;;
4857;SDS011;58975;51.978;8.472;2023-10-13T08:08:13;7.70;;;4.32;;
4857;SDS011;58975;51.978;8.472;2023-10-13T08:13:11;9.60;;;5.13;;
4857;SDS011;58975;51.978;8.472;2023-10-13T08:18:09;7.90;;;4.13;;
4857;SDS011;58975;51.978;8.472;2023-10-13T08:23:14;9.15;;;5.22;;
4857;SDS011;58975;51.978;8.472;2023-10-13T08:28:10;5.65;;;4.20;;
4857;SDS011;58975;51.978;8.472;2023-10-13T08:33:35;6.65;;;3.78;;
4857;SDS011;58975;51.978;8.472;2023-10-13T08:38:34;7.68;;;3.58;;
4857;SDS011;58975;51.978;8.472;2023-10-13T08:43:47;10.10;;;4.22;;
4857;SDS011;58975;51.978;8.472;2023-10-13T08:48:48;5.32;;;3.38;;
4857;SDS011;58975;51.978;8.472;2023-10-13T08:53:45;7.18;;;3.58;;
4857;SDS011;58975;51.978;8.472;2023-10-13T08:58:48;6.18;;;3.25;;
4857;SDS011;58975;51.978;8.472;2023-10-13T09:03:52;6.57;;;3.70;;
4857;SDS011;58975;51.978;8.472;2023-10-13T09:08:52;9.07;;;3.63;;
4857;SDS011;58975;51.978;8.472;2023-10-13T09:14:00;6.93;;;3.97;;
4857;SDS011;58975;51.978;8.472;2023-10-13T09:19:03;6.97;;;3.55;;
4857;SDS011;58975;51.978;8.472;2023-10-13T09:24:02;9.43;;;3.42;;
4857;SDS011;58975;51.978;8.472;2023-10-13T09:29:18;7.53;;;2.88;;
4857;SDS011;58975;51.978;8.472;2023-10-13T09:34:19;12.35;;;3.15;;
4857;SDS011;58975;51.978;8.472;2023-10-13T09:39:18;12.57;;;4.00;;
4857;SDS011;58975;51.978;8.472;2023-10-13T09:44:51;13.95;;;3.53;;
4857;SDS011;58975;51.978;8.472;2023-10-13T09:49:48;5.07;;;3.17;;
4857;SDS011;58975;51.978;8.472;2023-10-13T10:00:11;9.63;;;3.58;;
4857;SDS011;58975;51.978;8.472;2023-10-13T10:05:30;10.30;;;3.75;;
4857;SDS011;58975;51.978;8.472;2023-10-13T10:10:44;13.63;;;3.90;;
4857;SDS011;58975;51.978;8.472;2023-10-13T10:16:13;14.15;;;3.40;;
4857;SDS011;58975;51.978;8.472;2023-10-13T10:21:17;7.05;;;3.58;;
4857;SDS011;58975;51.978;8.472;2023-10-13T10:26:16;15.43;;;4.05;;
4857;SDS011;58975;51.978;8.472;2023-10-13T10:31:16;15.88;;;5.00;;
4857;SDS011;58975;51.978;8.472;2023-10-13T10:36:17;14.60;;;4.25;;
4857;SDS011;58975;51.978;8.472;2023-10-13T10:41:29;15.35;;;3.92;;
4857;SDS011;58975;51.978;8.472;2023-10-13T10:46:46;9.77;;;3.55;;
4857;SDS011;58975;51.978;8.472;2023-10-13T10:51:48;12.27;;;4.38;;
4857;SDS011;58975;51.978;8.472;2023-10-13T10:56:46;13.60;;;4.03;;
4857;SDS011;58975;51.978;8.472;2023-10-13T11:01:48;9.35;;;3.83;;
4857;SDS011;58975;51.978;8.472;2023-10-13T11:06:48;15.07;;;3.83;;
4857;SDS011;58975;51.978;8.472;2023-10-13T11:11:50;14.35;;;5.20;;
4857;SDS011;58975;51.978;8.472;2023-10-13T11:16:51;12.70;;;3.40;;
4857;SDS011;58975;51.978;8.472;2023-10-13T11:21:52;16.80;;;4.13;;
4857;SDS011;58975;51.978;8.472;2023-10-13T11:26:53;11.57;;;4.18;;
4857;SDS011;58975;51.978;8.472;2023-10-13T11:31:51;16.52;;;4.22;;
4857;SDS011;58975;51.978;8.472;2023-10-13T11:36:54;14.73;;;3.55;;
4857;SDS011;58975;51.978;8.472;2023-10-13T11:41:51;7.30;;;3.40;;
4857;SDS011;58975;51.978;8.472;2023-10-13T11:46:50;17.45;;;3.63;;
4857;SDS011;58975;51.978;8.472;2023-10-13T11:51:52;22.35;;;4.18;;
4857;SDS011;58975;51.978;8.472;2023-10-13T11:56:48;14.27;;;4.00;;
4857;SDS011;58975;51.978;8.472;2023-10-13T12:07:01;15.32;;;4.05;;
4857;SDS011;58975;51.978;8.472;2023-10-13T12:12:16;14.63;;;3.92;;
4857;SDS011;58975;51.978;8.472;2023-10-13T12:17:13;14.70;;;4.37;;
4857;SDS011;58975;51.978;8.472;2023-10-13T12:22:14;15.38;;;3.83;;
4857;SDS011;58975;51.978;8.472;2023-10-13T12:32:31;11.20;;;4.57;;
4857;SDS011;58975;51.978;8.472;2023-10-13T12:37:29;15.87;;;4.70;;
4857;SDS011;58975;51.978;8.472;2023-10-13T12:42:32;13.35;;;4.00;;
4857;SDS011;58975;51.978;8.472;2023-10-13T12:47:48;19.35;;;4.28;;
4857;SDS011;58975;51.978;8.472;2023-10-13T12:53:03;22.80;;;4.63;;
4857;SDS011;58975;51.978;8.472;2023-10-13T12:58:00;13.40;;;3.87;;
4857;SDS011;58975;51.978;8.472;2023-10-13T13:02:56;9.90;;;3.83;;
4857;SDS011;58975;51.978;8.472;2023-10-13T13:07:53;17.33;;;4.07;;
4857;SDS011;58975;51.978;8.472;2023-10-13T13:17:46;17.27;;;4.23;;
4857;SDS011;58975;51.978;8.472;2023-10-13T13:22:43;17.58;;;4.22;;
4857;SDS011;58975;51.978;8.472;2023-10-13T13:27:40;14.25;;;3.90;;
4857;SDS011;58975;51.978;8.472;2023-10-13T13:32:38;12.63;;;3.40;;
4857;SDS011;58975;51.978;8.472;2023-10-13T13:37:37;17.83;;;4.32;;
4857;SDS011;58975;51.978;8.472;2023-10-13T13:42:34;16.55;;;4.05;;
4857;SDS011;58975;51.978;8.472;2023-10-13T13:47:33;9.63;;;3.58;;
4857;SDS011;58975;51.978;8.472;2023-10-13T13:52:30;22.80;;;4.97;;
4857;SDS011;58975;51.978;8.472;2023-10-13T13:57:30;15.57;;;4.55;;
4857;SDS011;58975;51.978;8.472;2023-10-13T14:02:26;14.83;;;5.73;;
4857;SDS011;58975;51.978;8.472;2023-10-13T14:07:25;14.48;;;3.97;;
4857;SDS011;58975;51.978;8.472;2023-10-13T14:12:22;19.17;;;4.40;;
4857;SDS011;58975;51.978;8.472;2023-10-13T14:17:38;12.93;;;4.15;;
4857;SDS011;58975;51.978;8.472;2023-10-13T14:22:38;14.70;;;5.10;;
4857;SDS011;58975;51.978;8.472;2023-10-13T14:27:35;10.70;;;4.50;;
4857;SDS011;58975;51.978;8.472;2023-10-13T14:32:31;16.07;;;4.40;;
4857;SDS011;58975;51.978;8.472;2023-10-13T14:37:28;14.63;;;5.43;;
4857;SDS011;58975;51.978;8.472;2023-10-13T14:42:28;20.05;;;4.10;;
4857;SDS011;58975;51.978;8.472;2023-10-13T14:47:25;18.77;;;4.75;;
4857;SDS011;58975;51.978;8.472;2023-10-13T14:57:18;10.47;;;4.20;;
4857;SDS011;58975;51.978;8.472;2023-10-13T15:02:20;20.83;;;4.13;;
4857;SDS011;58975;51.978;8.472;2023-10-13T15:12:17;10.43;;;3.90;;
4857;SDS011;58975;51.978;8.472;2023-10-13T15:17:21;15.90;;;4.50;;
4857;SDS011;58975;51.978;8.472;2023-10-13T15:22:20;18.52;;;4.10;;
4857;SDS011;58975;51.978;8.472;2023-10-13T15:27:24;13.68;;;3.15;;
4857;SDS011;58975;51.978;8.472;2023-10-13T15:32:20;14.73;;;4.87;;
4857;SDS011;58975;51.978;8.472;2023-10-13T15:37:35;17.63;;;4.78;;
4857;SDS011;58975;51.978;8.472;2023-10-13T15:42:32;9.93;;;3.88;;
4857;SDS011;58975;51.978;8.472;2023-10-13T15:47:29;14.35;;;4.30;;
4857;SDS011;58975;51.978;8.472;2023-10-13T15:52:33;12.95;;;3.60;;
4857;SDS011;58975;51.978;8.472;2023-10-13T15:57:30;21.97;;;5.13;;
4857;SDS011;58975;51.978;8.472;2023-10-13T16:02:32;18.20;;;4.32;;
4857;SDS011;58975;51.978;8.472;2023-10-13T16:07:29;14.98;;;4.28;;
4857;SDS011;58975;51.978;8.472;2023-10-13T16:12:26;13.57;;;4.23;;
4857;SDS011;58975;51.978;8.472;2023-10-13T16:17:25;20.88;;;4.93;;
4857;SDS011;58975;51.978;8.472;2023-10-13T16:22:23;10.60;;;4.75;;
4857;SDS011;58975;51.978;8.472;2023-10-13T16:27:19;22.10;;;5.50;;
4857;SDS011;58975;51.978;8.472;2023-10-13T16:32:17;13.93;;;3.50;;
4857;SDS011;58975;51.978;8.472;2023-10-13T16:37:14;13.05;;;4.07;;
4857;SDS011;58975;51.978;8.472;2023-10-13T16:42:13;13.63;;;3.92;;
4857;SDS011;58975;51.978;8.472;2023-10-13T16:47:10;19.98;;;3.63;;
4857;SDS011;58975;51.978;8.472;2023-10-13T16:52:10;14.77;;;4.07;;
4857;SDS011;58975;51.978;8.472;2023-10-13T16:57:06;11.13;;;3.57;;
4857;SDS011;58975;51.978;8.472;2023-10-13T17:02:05;19.50;;;4.30;;
4857;SDS011;58975;51.978;8.472;2023-10-13T17:07:03;20.20;;;4.18;;
4857;SDS011;58975;51.978;8.472;2023-10-13T17:12:00;12.15;;;3.50;;
4857;SDS011;58975;51.978;8.472;2023-10-13T17:16:57;14.15;;;3.97;;
4857;SDS011;58975;51.978;8.472;2023-10-13T17:21:57;13.82;;;3.63;;
4857;SDS011;58975;51.978;8.472;2023-10-13T17:26:54;14.32;;;4.00;;
4857;SDS011;58975;51.978;8.472;2023-10-13T17:31:51;12.05;;;3.65;;
4857;SDS011;58975;51.978;8.472;2023-10-13T17:36:48;20.70;;;4.10;;
4857;SDS011;58975;51.978;8.472;2023-10-13T17:46:42;16.63;;;4.20;;
4857;SDS011;58975;51.978;8.472;2023-10-13T17:51:38;9.90;;;4.13;;
4857;SDS011;58975;51.978;8.472;2023-10-13T17:56:35;15.65;;;3.88;;
4857;SDS011;58975;51.978;8.472;2023-10-13T18:01:33;10.13;;;3.85;;
4857;SDS011;58975;51.978;8.472;2023-10-13T18:06:29;13.27;;;4.40;;
4857;SDS011;58975;51.978;8.472;2023-10-13T18:11:29;13.55;;;3.53;;
4857;SDS011;58975;51.978;8.472;2023-10-13T18:16:26;11.30;;;3.75;;
4857;SDS011;58975;51.978;8.472;2023-10-13T18:26:21;7.43;;;3.77;;
4857;SDS011;58975;51.978;8.472;2023-10-13T18:31:18;10.37;;;4.43;;
4857;SDS011;58975;51.978;8.472;2023-10-13T18:36:15;13.57;;;4.50;;
4857;SDS011;58975;51.978;8.472;2023-10-13T18:41:16;15.88;;;4.10;;
4857;SDS011;58975;51.978;8.472;2023-10-13T18:46:16;10.98;;;3.78;;
4857;SDS011;58975;51.978;8.472;2023-10-13T18:51:14;15.82;;;4.78;;
4857;SDS011;58975;51.978;8.472;2023-10-13T18:56:13;14.30;;;4.60;;
4857;SDS011;58975;51.978;8.472;2023-10-13T19:01:17;10.95;;;3.47;;
4857;SDS011;58975;51.978;8.472;2023-10-13T19:06:21;15.18;;;4.20;;
4857;SDS011;58975;51.978;8.472;2023-10-13T19:11:20;11.82;;;3.53;;
4857;SDS011;58975;51.978;8.472;2023-10-13T19:16:17;10.18;;;3.72;;
4857;SDS011;58975;51.978;8.472;2023-10-13T19:21:16;11.10;;;3.83;;
4857;SDS011;58975;51.978;8.472;2023-10-13T19:26:14;27.00;;;4.47;;
4857;SDS011;58975;51.978;8.472;2023-10-13T19:31:12;15.02;;;4.15;;
4857;SDS011;58975;51.978;8.472;2023-10-13T19:36:12;13.23;;;4.00;;
4857;SDS011;58975;51.978;8.472;2023-10-13T19:41:13;11.85;;;4.82;;
4857;SDS011;58975;51.978;8.472;2023-10-13T19:46:16;16.13;;;5.32;;
4857;SDS011;58975;51.978;8.472;2023-10-13T19:51:14;11.30;;;3.85;;
4857;SDS011;58975;51.978;8.472;2023-10-13T19:56:13;20.55;;;4.38;;
4857;SDS011;58975;51.978;8.472;2023-10-13T20:01:13;13.63;;;4.18;;
4857;SDS011;58975;51.978;8.472;2023-10-13T20:06:12;12.73;;;3.95;;
4857;SDS011;58975;51.978;8.472;2023-10-13T20:11:09;13.10;;;4.05;;
4857;SDS011;58975;51.978;8.472;2023-10-13T20:16:08;23.55;;;4.30;;
4857;SDS011;58975;51.978;8.472;2023-10-13T20:21:05;15.80;;;5.43;;
4857;SDS011;58975;51.978;8.472;2023-10-13T20:26:01;12.90;;;4.80;;
4857;SDS011;58975;51.978;8.472;2023-10-13T20:31:00;15.13;;;4.78;;
4857;SDS011;58975;51.978;8.472;2023-10-13T20:41:00;17.60;;;5.47;;
4857;SDS011;58975;51.978;8.472;2023-10-13T20:46:01;12.98;;;4.93;;
4857;SDS011;58975;51.978;8.472;2023-10-13T20:51:02;15.15;;;4.53;;
4857;SDS011;58975;51.978;8.472;2023-10-13T20:56:01;15.32;;;5.05;;
4857;SDS011;58975;51.978;8.472;2023-10-13T21:01:05;8.95;;;5.38;;
4857;SDS011;58975;51.978;8.472;2023-10-13T21:06:06;12.18;;;5.10;;
4857;SDS011;58975;51.978;8.472;2023-10-13T21:11:04;20.58;;;5.85;;
4857;SDS011;58975;51.978;8.472;2023-10-13T21:16:03;14.65;;;5.50;;
4857;SDS011;58975;51.978;8.472;2023-10-13T21:21:09;16.63;;;5.75;;
4857;SDS011;58975;51.978;8.472;2023-10-13T21:26:06;15.93;;;6.10;;
4857;SDS011;58975;51.978;8.472;2023-10-13T21:31:06;21.50;;;5.63;;
4857;SDS011;58975;51.978;8.472;2023-10-13T21:36:10;18.17;;;6.97;;
4857;SDS011;58975;51.978;8.472;2023-10-13T21:41:16;13.93;;;6.68;;
4857;SDS011;58975;51.978;8.472;2023-10-13T21:46:18;14.70;;;6.25;;
4857;SDS011;58975;51.978;8.472;2023-10-13T21:51:17;17.38;;;5.75;;
4857;SDS011;58975;51.978;8.472;2023-10-13T21:56:16;15.30;;;5.93;;
4857;SDS011;58975;51.978;8.472;2023-10-13T22:01:17;18.98;;;6.40;;
4857;SDS011;58975;51.978;8.472;2023-10-13T22:06:17;9.98;;;5.95;;
4857;SDS011;58975;51.978;8.472;2023-10-13T22:11:17;16.25;;;5.88;;
4857;SDS011;58975;51.978;8.472;2023-10-13T22:16:16;10.73;;;5.53;;
4857;SDS011;58975;51.978;8.472;2023-10-13T22:21:14;18.10;;;7.07;;
4857;SDS011;58975;51.978;8.472;2023-10-13T22:26:11;16.10;;;6.45;;
4857;SDS011;58975;51.978;8.472;2023-10-13T22:36:09;14.38;;;5.82;;
4857;SDS011;58975;51.978;8.472;2023-10-13T22:41:06;15.70;;;5.30;;
4857;SDS011;58975;51.978;8.472;2023-10-13T22:46:04;22.20;;;5.65;;
4857;SDS011;58975;51.978;8.472;2023-10-13T22:51:04;10.75;;;4.93;;
4857;SDS011;58975;51.978;8.472;2023-10-13T22:56:06;10.18;;;4.97;;
4857;SDS011;58975;51.978;8.472;2023-10-13T23:01:02;11.07;;;5.63;;
4857;SDS011;58975;51.978;8.472;2023-10-13T23:05:59;15.85;;;5.95;;
4857;SDS011;58975;51.978;8.472;2023-10-13T23:11:00;12.57;;;5.68;;
4857;SDS011;58975;51.978;8.472;2023-10-13T23:16:04;15.60;;;4.85;;
4857;SDS011;58975;51.978;8.472;2023-10-13T23:21:01;12.00;;;5.15;;
4857;SDS011;58975;51.978;8.472;2023-10-13T23:25:59;12.82;;;5.50;;
4857;SDS011;58975;51.978;8.472;2023-10-13T23:30:56;10.88;;;5.20;;
4857;SDS011;58975;51.978;8.472;2023-10-13T23:35:53;13.32;;;5.93;;
4857;SDS011;58975;51.978;8.472;2023-10-13T23:40:50;10.32;;;4.60;;
4857;SDS011;58975;51.978;8.472;2023-10-13T23:45:55;17.10;;;7.30;;
4857;SDS011;58975;51.978;8.472;2023-10-13T23:50:56;14.68;;;5.18;;
4857;SDS011;58975;51.978;8.472;2023-10-13T23:55:56;16.35;;;6.05;;
